sensor_id;sensor_type;location;lat;lon;timestamp;pressure;altitude;pressure_sealevel;temperature;humidity
29879;BME280;16752;53.364;-1.488;2023-05-29T00:01:44;101744.81;;;18.19;40.71
29879;BME280;16752;53.364;-1.488;2023-05-29T00:04:28;101761.13;;;18.26;40.59
29879;BME280;16752;53.364;-1.488;2023-05-29T00:07:12;101758.41;;;18.04;40.95
29879;BME280;16752;53.364;-1.488;2023-05-29T00:09:56;101718.31;;;17.84;41.55
29879;BME280;16752;53.364;-1.488;2023-05-29T00:12:40;101734.03;;;17.98;41.26
29879;BME280;16752;53.364;-1.488;2023-05-29T00:15:24;101766.75;;;18.10;41.31
29879;BME280;16752;53.364;-1.488;2023-05-29T00:18:08;101766.97;;;18.07;41.45
29879;BME280;16752;53.364;-1.488;2023-05-29T00:20:52;101776.97;;;18.04;41.54
29879;BME280;16752;53.364;-1.488;2023-05-29T00:23:37;101758.34;;;17.92;41.44
29879;BME280;16752;53.364;-1.488;2023-05-29T00:26:21;101753.50;;;17.86;41.94
29879;BME280;16752;53.364;-1.488;2023-05-29T00:29:05;101762.31;;;17.87;41.78
29879;BME280;16752;53.364;-1.488;2023-05-29T00:31:49;101754.09;;;17.79;41.83
29879;BME280;16752;53.364;-1.488;2023-05-29T00:34:33;101736.41;;;17.66;41.94
29879;BME280;16752;53.364;-1.488;2023-05-29T00:37:17;101705.44;;;17.43;42.00
29879;BME280;16752;53.364;-1.488;2023-05-29T00:40:01;101757.41;;;17.69;42.11
29879;BME280;16752;53.364;-1.488;2023-05-29T00:42:47;101725.56;;;17.46;42.07
29879;BME280;16752;53.364;-1.488;2023-05-29T00:45:31;101759.41;;;17.66;42.32
29879;BME280;16752;53.364;-1.488;2023-05-29T00:48:19;101760.16;;;17.68;42.14
29879;BME280;16752;53.364;-1.488;2023-05-29T00:51:04;101774.03;;;17.71;42.23
29879;BME280;16752;53.364;-1.488;2023-05-29T00:53:50;101742.59;;;17.54;42.27
29879;BME280;16752;53.364;-1.488;2023-05-29T00:56:35;101708.97;;;17.31;42.50
29879;BME280;16752;53.364;-1.488;2023-05-29T00:59:20;101733.13;;;17.39;42.43
29879;BME280;16752;53.364;-1.488;2023-05-29T01:02:05;101737.00;;;17.46;42.38
29879;BME280;16752;53.364;-1.488;2023-05-29T01:04:50;101767.94;;;17.58;42.56
29879;BME280;16752;53.364;-1.488;2023-05-29T01:07:38;101774.28;;;17.56;42.49
29879;BME280;16752;53.364;-1.488;2023-05-29T01:10:22;101727.97;;;17.25;42.62
29879;BME280;16752;53.364;-1.488;2023-05-29T01:13:12;101770.84;;;17.42;42.75
29879;BME280;16752;53.364;-1.488;2023-05-29T01:16:06;101762.38;;;17.37;42.79
29879;BME280;16752;53.364;-1.488;2023-05-29T01:25:35;101784.94;;;17.43;42.90
29879;BME280;16752;53.364;-1.488;2023-05-29T01:28:28;101781.03;;;17.36;43.00
29879;BME280;16752;53.364;-1.488;2023-05-29T01:31:17;101786.50;;;17.46;43.17
29879;BME280;16752;53.364;-1.488;2023-05-29T01:34:01;101694.47;;;16.87;43.04
29879;BME280;16752;53.364;-1.488;2023-05-29T01:36:46;101771.06;;;17.39;43.44
29879;BME280;16752;53.364;-1.488;2023-05-29T01:39:32;101778.91;;;17.41;43.67
29879;BME280;16752;53.364;-1.488;2023-05-29T01:42:17;101723.03;;;17.07;43.40
29879;BME280;16752;53.364;-1.488;2023-05-29T01:45:01;101701.25;;;16.91;43.12
29879;BME280;16752;53.364;-1.488;2023-05-29T01:47:48;101747.81;;;17.06;43.25
29879;BME280;16752;53.364;-1.488;2023-05-29T01:50:32;101789.91;;;17.35;43.22
29879;BME280;16752;53.364;-1.488;2023-05-29T01:53:17;101658.84;;;16.55;43.16
29879;BME280;16752;53.364;-1.488;2023-05-29T01:56:02;101762.97;;;17.17;43.32
29879;BME280;16752;53.364;-1.488;2023-05-29T01:58:47;101685.72;;;16.74;43.13
29879;BME280;16752;53.364;-1.488;2023-05-29T02:01:32;101666.34;;;16.61;43.17
29879;BME280;16752;53.364;-1.488;2023-05-29T02:04:16;101628.69;;;16.44;43.22
29879;BME280;16752;53.364;-1.488;2023-05-29T02:07:00;101690.38;;;16.83;43.51
29879;BME280;16752;53.364;-1.488;2023-05-29T02:09:45;101799.16;;;17.29;43.45
29879;BME280;16752;53.364;-1.488;2023-05-29T02:12:29;101707.31;;;16.80;43.54
29879;BME280;16752;53.364;-1.488;2023-05-29T02:15:13;101715.75;;;16.86;43.12
29879;BME280;16752;53.364;-1.488;2023-05-29T02:17:57;101643.91;;;16.41;43.04
29879;BME280;16752;53.364;-1.488;2023-05-29T02:20:41;101793.78;;;17.18;42.89
29879;BME280;16752;53.364;-1.488;2023-05-29T02:23:25;101676.72;;;16.51;43.18
29879;BME280;16752;53.364;-1.488;2023-05-29T02:26:09;101772.38;;;17.08;43.41
29879;BME280;16752;53.364;-1.488;2023-05-29T02:28:54;101719.69;;;16.67;43.23
29879;BME280;16752;53.364;-1.488;2023-05-29T02:31:38;101737.69;;;16.75;43.59
29879;BME280;16752;53.364;-1.488;2023-05-29T02:34:23;101612.84;;;16.06;43.32
29879;BME280;16752;53.364;-1.488;2023-05-29T02:37:08;101791.13;;;17.05;43.15
29879;BME280;16752;53.364;-1.488;2023-05-29T02:39:52;101622.88;;;16.01;43.34
29879;BME280;16752;53.364;-1.488;2023-05-29T02:42:36;101620.66;;;15.95;43.42
29879;BME280;16752;53.364;-1.488;2023-05-29T02:45:20;101610.94;;;15.96;43.63
29879;BME280;16752;53.364;-1.488;2023-05-29T02:48:05;101779.81;;;17.03;43.19
29879;BME280;16752;53.364;-1.488;2023-05-29T02:50:50;101782.78;;;16.99;43.68
29879;BME280;16752;53.364;-1.488;2023-05-29T02:53:53;101782.25;;;16.68;44.14
29879;BME280;16752;53.364;-1.488;2023-05-29T02:56:38;101616.47;;;16.05;43.26
29879;BME280;16752;53.364;-1.488;2023-05-29T02:59:24;101715.44;;;16.65;43.42
29879;BME280;16752;53.364;-1.488;2023-05-29T03:02:09;101686.34;;;16.39;44.27
29879;BME280;16752;53.364;-1.488;2023-05-29T03:05:15;101790.63;;;17.00;44.05
29879;BME280;16752;53.364;-1.488;2023-05-29T03:08:31;101788.81;;;17.01;43.89
29879;BME280;16752;53.364;-1.488;2023-05-29T03:11:45;101783.41;;;17.02;44.20
29879;BME280;16752;53.364;-1.488;2023-05-29T03:28:01;101690.06;;;16.49;44.24
29879;BME280;16752;53.364;-1.488;2023-05-29T03:30:45;101620.88;;;16.05;44.08
29879;BME280;16752;53.364;-1.488;2023-05-29T03:33:32;101610.94;;;15.96;43.94
29879;BME280;16752;53.364;-1.488;2023-05-29T03:36:17;101716.09;;;16.56;44.36
29879;BME280;16752;53.364;-1.488;2023-05-29T03:39:04;101611.88;;;15.95;44.04
29879;BME280;16752;53.364;-1.488;2023-05-29T03:41:49;101595.47;;;15.77;44.56
29879;BME280;16752;53.364;-1.488;2023-05-29T03:44:34;101597.19;;;15.91;44.17
29879;BME280;16752;53.364;-1.488;2023-05-29T03:47:24;101608.41;;;15.94;44.35
29879;BME280;16752;53.364;-1.488;2023-05-29T03:50:09;101622.59;;;16.06;44.19
29879;BME280;16752;53.364;-1.488;2023-05-29T03:52:53;101721.50;;;16.67;44.29
29879;BME280;16752;53.364;-1.488;2023-05-29T03:55:38;101625.88;;;16.09;44.43
29879;BME280;16752;53.364;-1.488;2023-05-29T03:58:22;101620.34;;;16.12;44.19
29879;BME280;16752;53.364;-1.488;2023-05-29T04:01:09;101616.88;;;16.12;44.38
29879;BME280;16752;53.364;-1.488;2023-05-29T04:03:54;101598.97;;;16.03;44.13
29879;BME280;16752;53.364;-1.488;2023-05-29T04:06:41;101643.94;;;16.15;44.30
29879;BME280;16752;53.364;-1.488;2023-05-29T04:09:26;101731.88;;;16.70;44.40
29879;BME280;16752;53.364;-1.488;2023-05-29T04:12:10;101624.06;;;16.10;44.32
29879;BME280;16752;53.364;-1.488;2023-05-29T04:14:54;101628.06;;;16.15;43.96
29879;BME280;16752;53.364;-1.488;2023-05-29T04:17:46;101805.63;;;17.13;44.28
29879;BME280;16752;53.364;-1.488;2023-05-29T04:20:36;101652.38;;;16.20;44.38
29879;BME280;16752;53.364;-1.488;2023-05-29T04:23:26;101705.72;;;16.53;44.26
29879;BME280;16752;53.364;-1.488;2023-05-29T04:26:11;101739.50;;;16.74;43.90
29879;BME280;16752;53.364;-1.488;2023-05-29T04:28:56;101640.34;;;16.16;43.91
29879;BME280;16752;53.364;-1.488;2023-05-29T04:31:44;101626.78;;;15.96;44.10
29879;BME280;16752;53.364;-1.488;2023-05-29T04:34:29;101754.84;;;16.82;43.94
29879;BME280;16752;53.364;-1.488;2023-05-29T04:37:35;101818.25;;;17.22;43.81
29879;BME280;16752;53.364;-1.488;2023-05-29T04:40:39;101759.47;;;16.66;44.28
29879;BME280;16752;53.364;-1.488;2023-05-29T04:43:56;101634.22;;;16.16;43.81
29879;BME280;16752;53.364;-1.488;2023-05-29T04:46:46;101715.25;;;16.68;43.99
29879;BME280;16752;53.364;-1.488;2023-05-29T04:49:54;101652.81;;;16.40;43.65
29879;BME280;16752;53.364;-1.488;2023-05-29T04:52:41;101718.53;;;16.84;43.36
29879;BME280;16752;53.364;-1.488;2023-05-29T04:55:25;101789.28;;;17.31;43.51
29879;BME280;16752;53.364;-1.488;2023-05-29T04:58:13;101724.44;;;17.00;43.84
29879;BME280;16752;53.364;-1.488;2023-05-29T05:01:18;101654.72;;;16.25;43.91
29879;BME280;16752;53.364;-1.488;2023-05-29T05:04:15;101732.13;;;17.16;43.13
29879;BME280;16752;53.364;-1.488;2023-05-29T05:07:09;101710.56;;;16.84;43.67
29879;BME280;16752;53.364;-1.488;2023-05-29T05:09:55;101788.28;;;17.58;43.14
29879;BME280;16752;53.364;-1.488;2023-05-29T05:15:54;101671.19;;;16.92;41.68
29879;BME280;16752;53.364;-1.488;2023-05-29T05:18:40;101830.28;;;17.88;42.05
29879;BME280;16752;53.364;-1.488;2023-05-29T05:21:33;101659.75;;;16.92;42.34
29879;BME280;16752;53.364;-1.488;2023-05-29T05:24:17;101843.50;;;18.00;42.02
29879;BME280;16752;53.364;-1.488;2023-05-29T05:27:12;101836.63;;;18.33;41.39
29879;BME280;16752;53.364;-1.488;2023-05-29T05:30:07;101666.81;;;17.28;41.10
29879;BME280;16752;53.364;-1.488;2023-05-29T05:33:01;101842.09;;;18.43;40.63
29879;BME280;16752;53.364;-1.488;2023-05-29T05:35:47;101656.81;;;17.44;40.35
29879;BME280;16752;53.364;-1.488;2023-05-29T05:41:13;101685.91;;;17.81;40.23
29879;BME280;16752;53.364;-1.488;2023-05-29T05:44:00;101679.13;;;17.77;39.76
29879;BME280;16752;53.364;-1.488;2023-05-29T05:46:45;101832.34;;;19.01;39.82
29879;BME280;16752;53.364;-1.488;2023-05-29T05:49:31;101847.56;;;18.87;39.48
29879;BME280;16752;53.364;-1.488;2023-05-29T05:52:15;101782.31;;;18.61;39.52
29879;BME280;16752;53.364;-1.488;2023-05-29T05:55:00;101818.25;;;19.11;39.61
29879;BME280;16752;53.364;-1.488;2023-05-29T05:57:44;101817.16;;;19.25;38.69
29879;BME280;16752;53.364;-1.488;2023-05-29T06:00:28;101755.13;;;18.92;37.95
29879;BME280;16752;53.364;-1.488;2023-05-29T06:03:13;101829.22;;;19.40;38.05
29879;BME280;16752;53.364;-1.488;2023-05-29T06:05:58;101838.28;;;19.27;38.38
29879;BME280;16752;53.364;-1.488;2023-05-29T06:08:42;101828.13;;;19.43;38.27
29879;BME280;16752;53.364;-1.488;2023-05-29T06:11:27;101830.16;;;19.50;37.84
29879;BME280;16752;53.364;-1.488;2023-05-29T06:14:11;101845.41;;;19.48;37.86
29879;BME280;16752;53.364;-1.488;2023-05-29T06:16:55;101843.47;;;19.73;37.63
29879;BME280;16752;53.364;-1.488;2023-05-29T06:19:40;101814.00;;;19.65;37.69
29879;BME280;16752;53.364;-1.488;2023-05-29T06:22:24;101825.69;;;19.73;37.42
29879;BME280;16752;53.364;-1.488;2023-05-29T06:25:08;101820.78;;;19.58;36.84
29879;BME280;16752;53.364;-1.488;2023-05-29T06:27:53;101821.00;;;19.77;36.31
29879;BME280;16752;53.364;-1.488;2023-05-29T06:30:38;101830.34;;;20.03;35.96
29879;BME280;16752;53.364;-1.488;2023-05-29T06:33:23;101791.44;;;19.91;35.66
29879;BME280;16752;53.364;-1.488;2023-05-29T06:36:27;101792.84;;;20.06;34.81
29879;BME280;16752;53.364;-1.488;2023-05-29T06:39:17;101847.13;;;20.47;34.76
29879;BME280;16752;53.364;-1.488;2023-05-29T06:42:02;101861.31;;;20.57;34.31
29879;BME280;16752;53.364;-1.488;2023-05-29T06:44:46;101813.75;;;20.32;34.60
29879;BME280;16752;53.364;-1.488;2023-05-29T06:47:30;101811.19;;;20.09;35.46
29879;BME280;16752;53.364;-1.488;2023-05-29T06:50:15;101868.03;;;20.52;34.84
29879;BME280;16752;53.364;-1.488;2023-05-29T06:52:59;101857.06;;;20.34;34.76
29879;BME280;16752;53.364;-1.488;2023-05-29T06:55:43;101831.31;;;19.91;35.44
29879;BME280;16752;53.364;-1.488;2023-05-29T06:58:27;101849.34;;;19.88;35.68
29879;BME280;16752;53.364;-1.488;2023-05-29T07:01:11;101828.16;;;20.40;35.15
29879;BME280;16752;53.364;-1.488;2023-05-29T07:03:56;101861.34;;;20.78;35.01
29879;BME280;16752;53.364;-1.488;2023-05-29T07:06:40;101809.19;;;20.55;34.66
29879;BME280;16752;53.364;-1.488;2023-05-29T07:09:24;101858.63;;;20.89;33.53
29879;BME280;16752;53.364;-1.488;2023-05-29T07:12:09;101819.34;;;20.29;34.79
29879;BME280;16752;53.364;-1.488;2023-05-29T07:14:53;101817.31;;;20.74;34.40
29879;BME280;16752;53.364;-1.488;2023-05-29T07:17:37;101815.75;;;20.71;34.39
29879;BME280;16752;53.364;-1.488;2023-05-29T07:20:21;101864.47;;;21.04;33.74
29879;BME280;16752;53.364;-1.488;2023-05-29T07:23:05;101846.66;;;21.04;33.55
29879;BME280;16752;53.364;-1.488;2023-05-29T07:25:49;101760.16;;;20.57;33.74
29879;BME280;16752;53.364;-1.488;2023-05-29T07:28:33;101875.44;;;20.90;34.27
29879;BME280;16752;53.364;-1.488;2023-05-29T07:31:17;101848.81;;;20.69;34.33
29879;BME280;16752;53.364;-1.488;2023-05-29T07:34:01;101869.56;;;21.17;34.10
29879;BME280;16752;53.364;-1.488;2023-05-29T07:37:01;101869.44;;;20.97;35.37
29879;BME280;16752;53.364;-1.488;2023-05-29T07:39:55;101831.50;;;21.05;34.25
29879;BME280;16752;53.364;-1.488;2023-05-29T07:42:40;101825.44;;;21.03;32.93
29879;BME280;16752;53.364;-1.488;2023-05-29T07:45:33;101890.75;;;21.79;32.55
29879;BME280;16752;53.364;-1.488;2023-05-29T07:48:19;101875.28;;;21.73;31.84
29879;BME280;16752;53.364;-1.488;2023-05-29T07:51:04;101814.53;;;21.37;31.31
29879;BME280;16752;53.364;-1.488;2023-05-29T07:53:59;101736.03;;;20.80;32.52
29879;BME280;16752;53.364;-1.488;2023-05-29T07:56:43;101787.13;;;21.25;30.94
29879;BME280;16752;53.364;-1.488;2023-05-29T07:59:29;101788.72;;;21.27;31.06
29879;BME280;16752;53.364;-1.488;2023-05-29T08:02:13;101829.41;;;20.25;32.69
29879;BME280;16752;53.364;-1.488;2023-05-29T08:04:57;101895.69;;;21.93;31.88
29879;BME280;16752;53.364;-1.488;2023-05-29T08:07:41;101863.06;;;21.30;32.04
29879;BME280;16752;53.364;-1.488;2023-05-29T08:10:27;101799.22;;;21.29;31.19
29879;BME280;16752;53.364;-1.488;2023-05-29T08:13:11;101874.72;;;21.70;32.57
29879;BME280;16752;53.364;-1.488;2023-05-29T08:15:55;101849.69;;;21.61;30.88
29879;BME280;16752;53.364;-1.488;2023-05-29T08:18:42;101906.03;;;22.85;29.31
29879;BME280;16752;53.364;-1.488;2023-05-29T08:21:30;101902.19;;;23.07;29.06
29879;BME280;16752;53.364;-1.488;2023-05-29T08:24:15;101838.13;;;22.01;30.64
29879;BME280;16752;53.364;-1.488;2023-05-29T08:27:02;101835.38;;;21.62;31.63
29879;BME280;16752;53.364;-1.488;2023-05-29T08:29:47;101814.72;;;22.14;29.28
29879;BME280;16752;53.364;-1.488;2023-05-29T08:32:31;101766.47;;;22.44;29.03
29879;BME280;16752;53.364;-1.488;2023-05-29T08:35:16;101759.41;;;22.53;29.41
29879;BME280;16752;53.364;-1.488;2023-05-29T08:38:00;101847.06;;;22.96;28.86
29879;BME280;16752;53.364;-1.488;2023-05-29T08:40:44;101855.09;;;23.33;27.93
29879;BME280;16752;53.364;-1.488;2023-05-29T08:43:30;101761.22;;;22.52;28.50
29879;BME280;16752;53.364;-1.488;2023-05-29T08:46:17;101825.91;;;22.46;28.90
29879;BME280;16752;53.364;-1.488;2023-05-29T08:49:02;101881.44;;;22.43;28.74
29879;BME280;16752;53.364;-1.488;2023-05-29T08:51:47;101741.63;;;22.34;28.96
29879;BME280;16752;53.364;-1.488;2023-05-29T08:54:37;101807.22;;;21.98;28.88
29879;BME280;16752;53.364;-1.488;2023-05-29T08:57:22;101863.31;;;22.56;28.82
29879;BME280;16752;53.364;-1.488;2023-05-29T09:00:11;101854.31;;;22.57;29.68
29879;BME280;16752;53.364;-1.488;2023-05-29T09:03:00;101764.13;;;22.22;29.15
29879;BME280;16752;53.364;-1.488;2023-05-29T09:05:44;101816.59;;;22.70;29.21
29879;BME280;16752;53.364;-1.488;2023-05-29T09:08:29;101833.50;;;23.17;27.91
29879;BME280;16752;53.364;-1.488;2023-05-29T09:11:14;101839.75;;;23.35;28.69
29879;BME280;16752;53.364;-1.488;2023-05-29T09:13:59;101895.56;;;23.58;29.03
29879;BME280;16752;53.364;-1.488;2023-05-29T09:16:43;101917.34;;;23.63;28.86
29879;BME280;16752;53.364;-1.488;2023-05-29T09:19:31;101740.59;;;22.92;28.20
29879;BME280;16752;53.364;-1.488;2023-05-29T09:22:16;101787.78;;;22.83;28.92
29879;BME280;16752;53.364;-1.488;2023-05-29T09:25:00;101825.75;;;23.24;29.40
29879;BME280;16752;53.364;-1.488;2023-05-29T09:27:45;101789.84;;;23.26;27.38
29879;BME280;16752;53.364;-1.488;2023-05-29T09:30:47;101908.03;;;23.94;29.07
29879;BME280;16752;53.364;-1.488;2023-05-29T09:33:31;101900.41;;;24.17;29.38
29879;BME280;16752;53.364;-1.488;2023-05-29T09:36:22;101817.03;;;24.12;27.80
29879;BME280;16752;53.364;-1.488;2023-05-29T09:39:06;101846.16;;;24.94;26.77
29879;BME280;16752;53.364;-1.488;2023-05-29T09:41:53;101926.19;;;25.33;27.34
29879;BME280;16752;53.364;-1.488;2023-05-29T09:44:40;101897.19;;;25.03;27.25
29879;BME280;16752;53.364;-1.488;2023-05-29T09:47:24;101793.63;;;23.96;28.18
29879;BME280;16752;53.364;-1.488;2023-05-29T09:50:19;101908.69;;;24.77;26.76
29879;BME280;16752;53.364;-1.488;2023-05-29T09:56:03;101893.75;;;24.31;27.22
29879;BME280;16752;53.364;-1.488;2023-05-29T09:58:48;101782.06;;;22.49;29.59
29879;BME280;16752;53.364;-1.488;2023-05-29T10:01:33;101908.09;;;23.57;29.07
29879;BME280;16752;53.364;-1.488;2023-05-29T10:04:21;101837.97;;;22.79;29.48
29879;BME280;16752;53.364;-1.488;2023-05-29T10:07:09;101912.34;;;23.40;30.02
29879;BME280;16752;53.364;-1.488;2023-05-29T10:09:59;101860.75;;;23.21;30.17
29879;BME280;16752;53.364;-1.488;2023-05-29T10:12:49;101864.63;;;23.08;30.49
29879;BME280;16752;53.364;-1.488;2023-05-29T10:15:33;101878.38;;;23.60;29.14
29879;BME280;16752;53.364;-1.488;2023-05-29T10:21:52;101902.41;;;23.33;29.16
29879;BME280;16752;53.364;-1.488;2023-05-29T10:24:37;101730.16;;;22.61;28.63
29879;BME280;16752;53.364;-1.488;2023-05-29T10:27:22;101821.41;;;24.13;28.39
29879;BME280;16752;53.364;-1.488;2023-05-29T10:33:31;101891.72;;;24.51;27.75
29879;BME280;16752;53.364;-1.488;2023-05-29T10:36:21;101893.25;;;24.97;28.68
29879;BME280;16752;53.364;-1.488;2023-05-29T10:39:13;101891.06;;;25.18;27.99
29879;BME280;16752;53.364;-1.488;2023-05-29T10:51:08;101779.81;;;24.96;26.26
29879;BME280;16752;53.364;-1.488;2023-05-29T10:53:52;101751.72;;;24.75;26.62
29879;BME280;16752;53.364;-1.488;2023-05-29T10:56:40;101793.97;;;24.55;27.15
29879;BME280;16752;53.364;-1.488;2023-05-29T10:59:27;101816.03;;;23.95;27.05
29879;BME280;16752;53.364;-1.488;2023-05-29T11:02:17;101880.09;;;25.72;26.48
29879;BME280;16752;53.364;-1.488;2023-05-29T11:05:27;101882.63;;;26.48;24.69
29879;BME280;16752;53.364;-1.488;2023-05-29T11:08:43;101886.63;;;26.60;25.29
29879;BME280;16752;53.364;-1.488;2023-05-29T11:11:32;101802.78;;;25.33;25.76
29879;BME280;16752;53.364;-1.488;2023-05-29T11:14:28;101748.28;;;23.32;26.79
29879;BME280;16752;53.364;-1.488;2023-05-29T11:17:29;101808.16;;;23.94;26.59
29879;BME280;16752;53.364;-1.488;2023-05-29T11:20:28;101734.06;;;24.64;25.39
29879;BME280;16752;53.364;-1.488;2023-05-29T11:23:16;101730.16;;;23.71;26.80
29879;BME280;16752;53.364;-1.488;2023-05-29T11:26:02;101839.97;;;25.20;26.48
29879;BME280;16752;53.364;-1.488;2023-05-29T11:28:47;101815.13;;;25.18;26.38
29879;BME280;16752;53.364;-1.488;2023-05-29T11:31:33;101872.53;;;26.42;24.84
29879;BME280;16752;53.364;-1.488;2023-05-29T11:34:20;101782.16;;;25.84;26.47
29879;BME280;16752;53.364;-1.488;2023-05-29T11:37:08;101781.53;;;25.40;25.83
29879;BME280;16752;53.364;-1.488;2023-05-29T11:39:53;101875.50;;;26.14;24.04
29879;BME280;16752;53.364;-1.488;2023-05-29T11:42:46;101734.28;;;25.63;25.47
29879;BME280;16752;53.364;-1.488;2023-05-29T11:45:35;101802.66;;;26.42;24.48
29879;BME280;16752;53.364;-1.488;2023-05-29T11:48:23;101877.22;;;26.72;24.29
29879;BME280;16752;53.364;-1.488;2023-05-29T11:51:11;101787.19;;;25.95;25.07
29879;BME280;16752;53.364;-1.488;2023-05-29T11:54:11;101755.72;;;26.77;25.33
29879;BME280;16752;53.364;-1.488;2023-05-29T11:57:02;101767.19;;;26.71;25.06
29879;BME280;16752;53.364;-1.488;2023-05-29T11:59:51;101727.59;;;26.96;23.71
29879;BME280;16752;53.364;-1.488;2023-05-29T12:02:36;101823.34;;;27.52;23.49
29879;BME280;16752;53.364;-1.488;2023-05-29T12:05:20;101823.94;;;27.39;23.29
29879;BME280;16752;53.364;-1.488;2023-05-29T12:08:05;101808.25;;;27.12;23.19
29879;BME280;16752;53.364;-1.488;2023-05-29T12:10:51;101711.31;;;26.09;24.59
29879;BME280;16752;53.364;-1.488;2023-05-29T12:13:35;101860.75;;;27.00;24.37
29879;BME280;16752;53.364;-1.488;2023-05-29T12:16:22;101843.94;;;26.82;25.08
29879;BME280;16752;53.364;-1.488;2023-05-29T12:19:07;101778.44;;;26.58;24.59
29879;BME280;16752;53.364;-1.488;2023-05-29T12:21:51;101820.03;;;25.73;24.83
29879;BME280;16752;53.364;-1.488;2023-05-29T12:24:45;101815.41;;;26.32;25.16
29879;BME280;16752;53.364;-1.488;2023-05-29T12:27:31;101834.47;;;27.18;25.34
29879;BME280;16752;53.364;-1.488;2023-05-29T12:30:20;101806.31;;;26.65;24.53
29879;BME280;16752;53.364;-1.488;2023-05-29T12:33:08;101825.47;;;26.30;24.39
29879;BME280;16752;53.364;-1.488;2023-05-29T12:35:52;101756.91;;;26.74;23.42
29879;BME280;16752;53.364;-1.488;2023-05-29T12:38:50;101826.47;;;26.77;26.10
29879;BME280;16752;53.364;-1.488;2023-05-29T12:41:37;101849.53;;;27.35;23.23
29879;BME280;16752;53.364;-1.488;2023-05-29T12:44:22;101831.97;;;27.48;23.87
29879;BME280;16752;53.364;-1.488;2023-05-29T12:47:09;101795.28;;;27.47;23.02
29879;BME280;16752;53.364;-1.488;2023-05-29T12:49:57;101845.06;;;27.90;23.09
29879;BME280;16752;53.364;-1.488;2023-05-29T12:52:43;101698.78;;;26.65;23.82
29879;BME280;16752;53.364;-1.488;2023-05-29T12:55:29;101693.00;;;26.85;23.11
29879;BME280;16752;53.364;-1.488;2023-05-29T12:58:30;101840.09;;;27.39;23.67
29879;BME280;16752;53.364;-1.488;2023-05-29T13:01:14;101700.09;;;26.77;25.08
29879;BME280;16752;53.364;-1.488;2023-05-29T13:03:58;101752.09;;;27.40;23.41
29879;BME280;16752;53.364;-1.488;2023-05-29T13:09:32;101769.56;;;27.75;22.81
29879;BME280;16752;53.364;-1.488;2023-05-29T13:12:16;101769.56;;;28.73;22.54
29879;BME280;16752;53.364;-1.488;2023-05-29T13:15:03;101714.53;;;29.18;20.43
29879;BME280;16752;53.364;-1.488;2023-05-29T13:17:52;101717.31;;;28.89;20.90
29879;BME280;16752;53.364;-1.488;2023-05-29T13:20:40;101709.66;;;28.78;21.37
29879;BME280;16752;53.364;-1.488;2023-05-29T13:23:23;101756.28;;;29.52;21.76
29879;BME280;16752;53.364;-1.488;2023-05-29T13:26:08;101833.94;;;29.20;21.52
29879;BME280;16752;53.364;-1.488;2023-05-29T13:28:52;101762.44;;;29.46;21.46
29879;BME280;16752;53.364;-1.488;2023-05-29T13:31:36;101804.28;;;28.91;20.34
29879;BME280;16752;53.364;-1.488;2023-05-29T13:34:27;101753.38;;;27.52;21.46
29879;BME280;16752;53.364;-1.488;2023-05-29T13:37:12;101808.94;;;29.12;20.68
29879;BME280;16752;53.364;-1.488;2023-05-29T13:39:57;101849.69;;;29.17;20.98
29879;BME280;16752;53.364;-1.488;2023-05-29T13:42:41;101801.41;;;27.94;20.45
29879;BME280;16752;53.364;-1.488;2023-05-29T13:45:25;101784.84;;;28.28;20.69
29879;BME280;16752;53.364;-1.488;2023-05-29T13:48:13;101777.16;;;27.94;21.30
29879;BME280;16752;53.364;-1.488;2023-05-29T13:50:57;101793.44;;;28.61;20.57
29879;BME280;16752;53.364;-1.488;2023-05-29T13:53:59;101753.34;;;28.58;19.75
29879;BME280;16752;53.364;-1.488;2023-05-29T13:56:43;101855.25;;;29.30;19.93
29879;BME280;16752;53.364;-1.488;2023-05-29T13:59:33;101695.34;;;28.33;20.53
29879;BME280;16752;53.364;-1.488;2023-05-29T14:02:18;101760.44;;;28.45;20.27
29879;BME280;16752;53.364;-1.488;2023-05-29T14:05:02;101784.00;;;28.95;20.36
29879;BME280;16752;53.364;-1.488;2023-05-29T14:07:50;101722.66;;;28.59;21.06
29879;BME280;16752;53.364;-1.488;2023-05-29T14:10:37;101780.88;;;27.70;21.45
29879;BME280;16752;53.364;-1.488;2023-05-29T14:13:21;101862.47;;;30.10;20.08
29879;BME280;16752;53.364;-1.488;2023-05-29T14:16:05;101722.00;;;29.02;19.99
29879;BME280;16752;53.364;-1.488;2023-05-29T14:18:49;101831.91;;;29.52;20.22
29879;BME280;16752;53.364;-1.488;2023-05-29T14:21:33;101851.94;;;30.00;20.69
29879;BME280;16752;53.364;-1.488;2023-05-29T14:24:24;101777.44;;;28.60;21.00
29879;BME280;16752;53.364;-1.488;2023-05-29T14:27:09;101753.75;;;28.85;21.36
29879;BME280;16752;53.364;-1.488;2023-05-29T14:29:53;101819.34;;;29.15;20.54
29879;BME280;16752;53.364;-1.488;2023-05-29T14:32:37;101676.75;;;28.38;20.18
29879;BME280;16752;53.364;-1.488;2023-05-29T14:35:21;101853.94;;;29.56;20.94
29879;BME280;16752;53.364;-1.488;2023-05-29T14:38:05;101846.25;;;30.10;21.04
29879;BME280;16752;53.364;-1.488;2023-05-29T14:40:50;101788.44;;;29.68;20.36
29879;BME280;16752;53.364;-1.488;2023-05-29T14:43:33;101691.25;;;28.96;20.24
29879;BME280;16752;53.364;-1.488;2023-05-29T14:46:18;101784.91;;;29.89;20.33
29879;BME280;16752;53.364;-1.488;2023-05-29T14:49:02;101781.56;;;29.87;19.71
29879;BME280;16752;53.364;-1.488;2023-05-29T14:51:46;101823.41;;;30.13;20.38
29879;BME280;16752;53.364;-1.488;2023-05-29T14:54:30;101832.63;;;29.82;21.16
29879;BME280;16752;53.364;-1.488;2023-05-29T14:57:17;101725.56;;;29.53;19.43
29879;BME280;16752;53.364;-1.488;2023-05-29T15:00:04;101792.28;;;30.73;18.26
29879;BME280;16752;53.364;-1.488;2023-05-29T15:02:49;101823.91;;;31.07;18.50
29879;BME280;16752;53.364;-1.488;2023-05-29T15:05:33;101847.72;;;31.66;17.96
29879;BME280;16752;53.364;-1.488;2023-05-29T15:08:18;101807.25;;;31.51;18.28
29879;BME280;16752;53.364;-1.488;2023-05-29T15:11:02;101804.25;;;32.20;16.46